Peter R. Cresswell — VCBZ — position and weather

sailwx.info

Track history (hours):
 
Tides and Currents Weather Stations Pressure Air Temp Water Temp Dewpoint Dewpoint Depression Visibility Wind Speed Wind Dir Waves Ship Positions

Peter R. Cresswell

ex Algowest

Last reported at 2015-Aug-23 21:07 UTC. Time now 2015-Sep-03 19:13 UTC.
Position N 42°26' W 080°18'.
Warning: this ship's position is 10 days out of date.

Length 219.2 m; beam 23.2 m; draft 8.7 m.

Type: Ship. MMSI: 316001697.

Date/timePositionNaut miles runAvg speedWind from/ knotsBaromVisibWave heightAir tempDewpointWater temp
2015-Aug-23 21:07N 42°26' W 080°18'2011.3
2015-Aug-23 19:23N 42°34' W 079°53'39 5.6
2015-Aug-23 12:26N 42°59' W 079°13'4 4.5
2015-Aug-23 11:33N 43°03' W 079°13'2 2.4
2015-Aug-23 10:33N 43°06' W 079°12'2 1.6
2015-Aug-23 09:33N 43°07' W 079°12'1 0.6
2015-Aug-23 08:33N 43°08' W 079°12'0 0.5
2015-Aug-23 07:33N 43°08' W 079°12'0 0.2
2015-Aug-23 06:33N 43°08' W 079°12'1 1.1
2015-Aug-23 05:33N 43°09' W 079°12'1 1.5
2015-Aug-23 04:33N 43°11' W 079°12'1 0.9
2015-Aug-23 03:33N 43°12' W 079°12'1 1.4
2015-Aug-23 02:33N 43°13' W 079°13'0 0.2
2015-Aug-23 01:33N 43°13' W 079°13'3 2.6
2015-Aug-23 00:34N 43°16' W 079°13'3 3.0
2015-Aug-22 23:33N 43°18' W 079°11'8 8.2
2015-Aug-22 22:33N 43°24' W 079°03'9 8.6
2015-Aug-22 21:33N 43°27' W 078°51'13 0.3
2015-Aug-21 02:32N 43°39' W 078°55'1212.4
2015-Aug-21 01:33N 43°31' W 079°07'1111.3
2015-Aug-21 00:33N 43°20' W 079°13'7 7.5
2015-Aug-20 23:33N 43°13' W 079°13'1 0.6
2015-Aug-20 22:33N 43°12' W 079°13'1 1.2
2015-Aug-20 21:34N 43°11' W 079°12'2 1.8
2015-Aug-20 20:33N 43°09' W 079°12'1 1.3
2015-Aug-20 19:33N 43°08' W 079°12'0 0.3
2015-Aug-20 18:33N 43°08' W 079°12'1 0.5
2015-Aug-20 17:33N 43°07' W 079°12'3 2.9
2015-Aug-20 16:33N 43°05' W 079°13'29 6.7
2015-Aug-20 12:18N 42°40' W 079°34'912.3
2015-Aug-20 11:33N 42°35' W 079°44'1212.4
2015-Aug-20 10:33N 42°28' W 079°58'  
2015-Aug-18 04:07N 42°11' W 081°09'811.0
2015-Aug-18 03:22N 42°14' W 080°59'1111.1
2015-Aug-18 02:25N 42°18' W 080°45'1011.0
2015-Aug-18 01:30N 42°22' W 080°32'1011.1
2015-Aug-18 00:34N 42°26' W 080°19'1111.3
2015-Aug-17 23:33N 42°30' W 080°05'1111.4
2015-Aug-17 22:33N 42°35' W 079°51'1111.4
2015-Aug-17 21:34N 42°41' W 079°38'1111.0
2015-Aug-17 20:33N 42°47' W 079°25'19 4.4
2015-Aug-17 16:15N 43°03' W 079°13'3 4.6
2015-Aug-17 15:33N 43°07' W 079°12'1 1.1
2015-Aug-17 14:33N 43°08' W 079°12'0 0.3
2015-Aug-17 13:33N 43°08' W 079°12'0 0.2
2015-Aug-17 12:33N 43°08' W 079°12'0 0.2
2015-Aug-17 11:33N 43°08' W 079°12'1 1.1
2015-Aug-17 10:33N 43°09' W 079°12'2 2.3
2015-Aug-17 09:33N 43°12' W 079°12'1 0.6
2015-Aug-17 08:33N 43°12' W 079°12'1 0.9
2015-Aug-17 07:33N 43°13' W 079°13'1 1.0
2015-Aug-17 06:33N 43°14' W 079°13'8 7.9
2015-Aug-17 05:33N 43°21' W 079°08'1010.0
2015-Aug-17 04:33N 43°26' W 078°56'7 6.7
2015-Aug-17 03:33N 43°28' W 078°47'6 6.3
2015-Aug-17 02:33N 43°29' W 078°39'6 6.5
2015-Aug-17 01:33N 43°31' W 078°30'23 1.0
2015-Aug-16 02:28N 43°52' W 078°41'23 0.5
2015-Aug-14 07:12N 43°35' W 079°01'812.3
2015-Aug-14 06:33N 43°29' W 079°09'1111.0
2015-Aug-14 05:33N 43°19' W 079°13'6 5.8
2015-Aug-14 04:34N 43°13' W 079°13'2 1.5
2015-Aug-14 03:34N 43°12' W 079°12'2 2.1
2015-Aug-14 02:34N 43°09' W 079°12'1 1.4
2015-Aug-14 01:34N 43°08' W 079°12'0 0.3
2015-Aug-14 00:34N 43°08' W 079°12'1 0.7
2015-Aug-13 23:34N 43°07' W 079°12'2 2.0
2015-Aug-13 22:33N 43°05' W 079°13'  
Track history (hours):
 
Tides and Currents Weather Stations Pressure Air Temp Water Temp Dewpoint Dewpoint Depression Visibility Wind Speed Wind Dir Waves Ship Positions

Peter R. Cresswell

ex Algowest

Last reported at 2015-Aug-23 21:07 UTC. Time now 2015-Sep-03 19:13 UTC.
Position N 42°26' W 080°18'.
Warning: this ship's position is 10 days out of date.

Length 219.2 m; beam 23.2 m; draft 8.7 m.

Type: Ship. MMSI: 316001697.

Date/timePositionNaut miles runAvg speedWind from/ knotsBaromVisibWave heightAir tempDewpointWater temp
2015-Aug-23 21:07N 42°26' W 080°18'2011.3
2015-Aug-23 19:23N 42°34' W 079°53'39 5.6
2015-Aug-23 12:26N 42°59' W 079°13'4 4.5
2015-Aug-23 11:33N 43°03' W 079°13'2 2.4
2015-Aug-23 10:33N 43°06' W 079°12'2 1.6
2015-Aug-23 09:33N 43°07' W 079°12'1 0.6
2015-Aug-23 08:33N 43°08' W 079°12'0 0.5
2015-Aug-23 07:33N 43°08' W 079°12'0 0.2
2015-Aug-23 06:33N 43°08' W 079°12'1 1.1
2015-Aug-23 05:33N 43°09' W 079°12'1 1.5
2015-Aug-23 04:33N 43°11' W 079°12'1 0.9
2015-Aug-23 03:33N 43°12' W 079°12'1 1.4
2015-Aug-23 02:33N 43°13' W 079°13'0 0.2
2015-Aug-23 01:33N 43°13' W 079°13'3 2.6
2015-Aug-23 00:34N 43°16' W 079°13'3 3.0
2015-Aug-22 23:33N 43°18' W 079°11'8 8.2
2015-Aug-22 22:33N 43°24' W 079°03'9 8.6
2015-Aug-22 21:33N 43°27' W 078°51'13 0.3
2015-Aug-21 02:32N 43°39' W 078°55'1212.4
2015-Aug-21 01:33N 43°31' W 079°07'1111.3
2015-Aug-21 00:33N 43°20' W 079°13'7 7.5
2015-Aug-20 23:33N 43°13' W 079°13'1 0.6
2015-Aug-20 22:33N 43°12' W 079°13'1 1.2
2015-Aug-20 21:34N 43°11' W 079°12'2 1.8
2015-Aug-20 20:33N 43°09' W 079°12'1 1.3
2015-Aug-20 19:33N 43°08' W 079°12'0 0.3
2015-Aug-20 18:33N 43°08' W 079°12'1 0.5
2015-Aug-20 17:33N 43°07' W 079°12'3 2.9
2015-Aug-20 16:33N 43°05' W 079°13'29 6.7
2015-Aug-20 12:18N 42°40' W 079°34'912.3
2015-Aug-20 11:33N 42°35' W 079°44'1212.4
2015-Aug-20 10:33N 42°28' W 079°58'  
2015-Aug-18 04:07N 42°11' W 081°09'811.0
2015-Aug-18 03:22N 42°14' W 080°59'1111.1
2015-Aug-18 02:25N 42°18' W 080°45'1011.0
2015-Aug-18 01:30N 42°22' W 080°32'1011.1
2015-Aug-18 00:34N 42°26' W 080°19'1111.3
2015-Aug-17 23:33N 42°30' W 080°05'1111.4
2015-Aug-17 22:33N 42°35' W 079°51'1111.4
2015-Aug-17 21:34N 42°41' W 079°38'1111.0
2015-Aug-17 20:33N 42°47' W 079°25'19 4.4
2015-Aug-17 16:15N 43°03' W 079°13'3 4.6
2015-Aug-17 15:33N 43°07' W 079°12'1 1.1
2015-Aug-17 14:33N 43°08' W 079°12'0 0.3
2015-Aug-17 13:33N 43°08' W 079°12'0 0.2
2015-Aug-17 12:33N 43°08' W 079°12'0 0.2
2015-Aug-17 11:33N 43°08' W 079°12'1 1.1
2015-Aug-17 10:33N 43°09' W 079°12'2 2.3
2015-Aug-17 09:33N 43°12' W 079°12'1 0.6
2015-Aug-17 08:33N 43°12' W 079°12'1 0.9
2015-Aug-17 07:33N 43°13' W 079°13'1 1.0
2015-Aug-17 06:33N 43°14' W 079°13'8 7.9
2015-Aug-17 05:33N 43°21' W 079°08'1010.0
2015-Aug-17 04:33N 43°26' W 078°56'7 6.7
2015-Aug-17 03:33N 43°28' W 078°47'6 6.3
2015-Aug-17 02:33N 43°29' W 078°39'6 6.5
2015-Aug-17 01:33N 43°31' W 078°30'23 1.0
2015-Aug-16 02:28N 43°52' W 078°41'23 0.5
2015-Aug-14 07:12N 43°35' W 079°01'812.3
2015-Aug-14 06:33N 43°29' W 079°09'1111.0
2015-Aug-14 05:33N 43°19' W 079°13'6 5.8
2015-Aug-14 04:34N 43°13' W 079°13'2 1.5
2015-Aug-14 03:34N 43°12' W 079°12'2 2.1
2015-Aug-14 02:34N 43°09' W 079°12'1 1.4
2015-Aug-14 01:34N 43°08' W 079°12'0 0.3
2015-Aug-14 00:34N 43°08' W 079°12'1 0.7
2015-Aug-13 23:34N 43°07' W 079°12'2 2.0
2015-Aug-13 22:33N 43°05' W 079°13'  

Dump ship's entire track history